7QMTA FWLK-FWUU
Flight info
| Callsign | 7QMTA |
|---|---|
| Flight time | 0h 32m |
| Altitude | 8500 |
| Route | VMZ |
| Aircraft | C210/L-SDGRY/C |
Departure
| Time | 2026-04-28 09:30 |
|---|---|
| Airport | Likoma Island Airport (FWLK) |
Arrival
| Time | 2026-04-28 10:02 |
|---|---|
| Airport | Mzuzu Airport (FWUU) |
| Time | Latitude | Longitude | Altitude | Speed | Heading |
|---|---|---|---|---|---|
| 2026-04-28 09:29 | -12.07980 | 34.73635 | 1595 ft | 68 kts | 186° |
| 2026-04-28 09:29 | -12.08503 | 34.73553 | 1639 ft | 80 kts | 192° |
| 2026-04-28 09:29 | -12.09038 | 34.73426 | 1788 ft | 81 kts | 194° |
| 2026-04-28 09:30 | -12.09617 | 34.73261 | 1960 ft | 92 kts | 196° |
| 2026-04-28 09:30 | -12.10214 | 34.73021 | 2206 ft | 92 kts | 207° |
| 2026-04-28 09:30 | -12.10556 | 34.72447 | 2240 ft | 112 kts | 263° |
| 2026-04-28 09:30 | -12.10400 | 34.71680 | 2560 ft | 103 kts | 289° |
| 2026-04-28 09:31 | -12.10123 | 34.70981 | 2679 ft | 116 kts | 287° |
| 2026-04-28 09:31 | -12.09819 | 34.70238 | 2952 ft | 108 kts | 296° |
| 2026-04-28 09:31 | -12.09407 | 34.69576 | 3106 ft | 116 kts | 303° |
| 2026-04-28 09:31 | -12.08934 | 34.68916 | 3370 ft | 113 kts | 298° |
| 2026-04-28 09:32 | -12.08671 | 34.68136 | 3480 ft | 117 kts | 294° |
| 2026-04-28 09:32 | -12.08130 | 34.67554 | 3700 ft | 115 kts | 315° |
| 2026-04-28 09:32 | -12.07610 | 34.67088 | 3832 ft | 117 kts | 316° |
| 2026-04-28 09:33 | -12.07411 | 34.66900 | 3911 ft | 115 kts | 314° |
| 2026-04-28 09:34 | -12.06855 | 34.66304 | 4071 ft | 117 kts | 308° |
| 2026-04-28 09:34 | -12.06329 | 34.65675 | 4268 ft | 117 kts | 308° |
| 2026-04-28 09:34 | -12.05872 | 34.64986 | 4444 ft | 118 kts | 302° |
| 2026-04-28 09:34 | -12.05284 | 34.64377 | 4645 ft | 117 kts | 314° |
| 2026-04-28 09:35 | -12.04691 | 34.63794 | 4813 ft | 123 kts | 314° |
| 2026-04-28 09:35 | -12.04091 | 34.63182 | 5044 ft | 120 kts | 314° |
| 2026-04-28 09:35 | -12.03555 | 34.62527 | 5244 ft | 122 kts | 301° |
| 2026-04-28 09:35 | -12.03102 | 34.61765 | 5657 ft | 120 kts | 303° |
| 2026-04-28 09:36 | -12.02589 | 34.61085 | 5817 ft | 123 kts | 306° |
| 2026-04-28 09:36 | -12.02072 | 34.60418 | 6012 ft | 120 kts | 306° |
| 2026-04-28 09:36 | -12.01562 | 34.59731 | 6182 ft | 123 kts | 305° |
| 2026-04-28 09:36 | -12.01009 | 34.59071 | 6375 ft | 122 kts | 312° |
| 2026-04-28 09:37 | -12.00378 | 34.58466 | 6545 ft | 125 kts | 316° |
| 2026-04-28 09:37 | -11.99750 | 34.57871 | 6747 ft | 122 kts | 313° |
| 2026-04-28 09:37 | -11.99134 | 34.57247 | 6917 ft | 124 kts | 307° |
| 2026-04-28 09:37 | -11.98580 | 34.56600 | 7118 ft | 123 kts | 318° |
| 2026-04-28 09:38 | -11.97918 | 34.56061 | 7274 ft | 123 kts | 319° |
| 2026-04-28 09:38 | -11.97206 | 34.55535 | 7394 ft | 125 kts | 320° |
| 2026-04-28 09:38 | -11.96523 | 34.54992 | 7580 ft | 125 kts | 318° |
| 2026-04-28 09:38 | -11.95840 | 34.54436 | 7766 ft | 125 kts | 318° |
| 2026-04-28 09:39 | -11.95171 | 34.53900 | 7938 ft | 124 kts | 320° |
| 2026-04-28 09:39 | -11.94472 | 34.53364 | 8055 ft | 126 kts | 318° |
| 2026-04-28 09:39 | -11.93853 | 34.52755 | 8258 ft | 121 kts | 306° |
| 2026-04-28 09:39 | -11.93251 | 34.52106 | 8387 ft | 126 kts | 310° |
| 2026-04-28 09:40 | -11.92702 | 34.51444 | 8551 ft | 123 kts | 304° |
| 2026-04-28 09:40 | -11.92143 | 34.50733 | 8542 ft | 134 kts | 306° |
| 2026-04-28 09:40 | -11.91477 | 34.50026 | 8544 ft | 142 kts | 314° |
| 2026-04-28 09:40 | -11.90733 | 34.49327 | 8531 ft | 149 kts | 313° |
| 2026-04-28 09:41 | -11.89955 | 34.48606 | 8562 ft | 150 kts | 314° |
| 2026-04-28 09:41 | -11.89282 | 34.47832 | 8705 ft | 144 kts | 301° |
| 2026-04-28 09:41 | -11.88910 | 34.46876 | 8665 ft | 148 kts | 275° |
| 2026-04-28 09:41 | -11.88549 | 34.45868 | 8452 ft | 164 kts | 309° |
| 2026-04-28 09:42 | -11.87707 | 34.45096 | 8474 ft | 162 kts | 316° |
| 2026-04-28 09:42 | -11.86861 | 34.44339 | 8474 ft | 161 kts | 316° |
| 2026-04-28 09:42 | -11.86024 | 34.43589 | 8478 ft | 162 kts | 316° |
| 2026-04-28 09:42 | -11.85176 | 34.42824 | 8474 ft | 163 kts | 315° |
| 2026-04-28 09:43 | -11.84337 | 34.42040 | 8478 ft | 163 kts | 315° |
| 2026-04-28 09:43 | -11.83502 | 34.41254 | 8480 ft | 163 kts | 315° |
| 2026-04-28 09:43 | -11.82665 | 34.40464 | 8486 ft | 163 kts | 315° |
| 2026-04-28 09:43 | -11.81838 | 34.39685 | 8517 ft | 162 kts | 315° |
| 2026-04-28 09:44 | -11.81017 | 34.38913 | 8519 ft | 163 kts | 315° |
| 2026-04-28 09:44 | -11.80176 | 34.38123 | 8521 ft | 164 kts | 315° |
| 2026-04-28 09:44 | -11.79333 | 34.37332 | 8522 ft | 165 kts | 315° |
| 2026-04-28 09:44 | -11.78892 | 34.36917 | 8524 ft | 165 kts | 315° |
| 2026-04-28 09:45 | -11.78043 | 34.36120 | 8525 ft | 165 kts | 315° |
| 2026-04-28 09:45 | -11.77198 | 34.35325 | 8526 ft | 165 kts | 315° |
| 2026-04-28 09:45 | -11.76357 | 34.34526 | 8526 ft | 165 kts | 315° |
| 2026-04-28 09:45 | -11.75515 | 34.33727 | 8528 ft | 165 kts | 314° |
| 2026-04-28 09:46 | -11.74683 | 34.32942 | 8528 ft | 165 kts | 315° |
| 2026-04-28 09:46 | -11.73839 | 34.32145 | 8530 ft | 165 kts | 314° |
| 2026-04-28 09:46 | -11.72997 | 34.31346 | 8530 ft | 166 kts | 315° |
| 2026-04-28 09:46 | -11.72152 | 34.30545 | 8534 ft | 166 kts | 315° |
| 2026-04-28 09:47 | -11.71301 | 34.29739 | 8529 ft | 170 kts | 315° |
| 2026-04-28 09:47 | -11.70431 | 34.28918 | 8535 ft | 170 kts | 314° |
| 2026-04-28 09:47 | -11.69574 | 34.28101 | 8537 ft | 169 kts | 314° |
| 2026-04-28 09:47 | -11.68709 | 34.27269 | 8533 ft | 172 kts | 314° |
| 2026-04-28 09:48 | -11.67843 | 34.26438 | 8533 ft | 169 kts | 314° |
| 2026-04-28 09:48 | -11.66988 | 34.25617 | 8543 ft | 170 kts | 314° |
| 2026-04-28 09:48 | -11.66119 | 34.24780 | 8531 ft | 172 kts | 314° |
| 2026-04-28 09:48 | -11.65246 | 34.23941 | 8531 ft | 172 kts | 314° |
| 2026-04-28 09:49 | -11.64375 | 34.23102 | 8528 ft | 172 kts | 314° |
| 2026-04-28 09:49 | -11.63512 | 34.22270 | 8531 ft | 169 kts | 314° |
| 2026-04-28 09:49 | -11.62656 | 34.21443 | 8532 ft | 170 kts | 314° |
| 2026-04-28 09:49 | -11.61800 | 34.20612 | 8528 ft | 170 kts | 314° |
| 2026-04-28 09:50 | -11.60946 | 34.19782 | 8540 ft | 173 kts | 314° |
| 2026-04-28 09:50 | -11.60072 | 34.18932 | 8542 ft | 174 kts | 314° |
| 2026-04-28 09:50 | -11.59193 | 34.18082 | 8546 ft | 174 kts | 314° |
| 2026-04-28 09:50 | -11.58324 | 34.17240 | 8533 ft | 171 kts | 314° |
| 2026-04-28 09:51 | -11.57465 | 34.16404 | 8528 ft | 170 kts | 314° |
| 2026-04-28 09:51 | -11.56616 | 34.15577 | 8539 ft | 168 kts | 314° |
| 2026-04-28 09:51 | -11.55756 | 34.14743 | 8526 ft | 171 kts | 314° |
| 2026-04-28 09:51 | -11.54904 | 34.13916 | 8526 ft | 167 kts | 314° |
| 2026-04-28 09:52 | -11.54062 | 34.13131 | 8538 ft | 167 kts | 317° |
| 2026-04-28 09:52 | -11.53192 | 34.12345 | 8516 ft | 169 kts | 316° |
| 2026-04-28 09:52 | -11.52301 | 34.11526 | 8395 ft | 173 kts | 316° |
| 2026-04-28 09:52 | -11.51406 | 34.10737 | 8263 ft | 168 kts | 319° |
| 2026-04-28 09:53 | -11.50512 | 34.09994 | 8132 ft | 164 kts | 319° |
| 2026-04-28 09:53 | -11.49629 | 34.09258 | 8010 ft | 164 kts | 319° |
| 2026-04-28 09:53 | -11.48731 | 34.08567 | 7894 ft | 163 kts | 322° |
| 2026-04-28 09:53 | -11.47799 | 34.07909 | 7784 ft | 163 kts | 323° |
| 2026-04-28 09:54 | -11.46866 | 34.07257 | 7677 ft | 165 kts | 323° |
| 2026-04-28 09:54 | -11.45929 | 34.06605 | 7545 ft | 162 kts | 323° |
| 2026-04-28 09:54 | -11.44999 | 34.05961 | 7423 ft | 161 kts | 324° |
| 2026-04-28 09:54 | -11.44076 | 34.05321 | 7299 ft | 160 kts | 325° |
| 2026-04-28 09:55 | -11.43063 | 34.04858 | 7150 ft | 162 kts | 339° |
| 2026-04-28 09:55 | -11.41980 | 34.04423 | 7034 ft | 171 kts | 336° |
| 2026-04-28 09:55 | -11.40849 | 34.03975 | 6856 ft | 171 kts | 339° |
| 2026-04-28 09:55 | -11.39782 | 34.03537 | 6708 ft | 163 kts | 336° |
| 2026-04-28 09:56 | -11.38707 | 34.03105 | 6566 ft | 167 kts | 338° |
| 2026-04-28 09:56 | -11.37671 | 34.02677 | 6540 ft | 154 kts | 337° |
| 2026-04-28 09:56 | -11.36716 | 34.02294 | 6587 ft | 140 kts | 338° |
| 2026-04-28 09:56 | -11.35913 | 34.01836 | 6459 ft | 126 kts | 312° |
| 2026-04-28 09:57 | -11.35672 | 34.01054 | 6303 ft | 116 kts | 257° |
| 2026-04-28 09:57 | -11.35883 | 34.00316 | 6139 ft | 105 kts | 244° |
| 2026-04-28 09:57 | -11.36172 | 33.99613 | 6025 ft | 108 kts | 230° |
| 2026-04-28 09:57 | -11.36751 | 33.99134 | 5784 ft | 108 kts | 199° |
| 2026-04-28 09:58 | -11.37467 | 33.99018 | 5648 ft | 96 kts | 174° |
| 2026-04-28 09:58 | -11.38127 | 33.99122 | 5517 ft | 96 kts | 165° |
| 2026-04-28 09:58 | -11.38783 | 33.99305 | 5352 ft | 96 kts | 159° |
| 2026-04-28 09:58 | -11.39410 | 33.99495 | 5162 ft | 93 kts | 158° |
| 2026-04-28 09:59 | -11.40004 | 33.99728 | 5030 ft | 89 kts | 156° |
| 2026-04-28 09:59 | -11.40575 | 33.99942 | 4947 ft | 89 kts | 163° |
| 2026-04-28 09:59 | -11.41175 | 34.00137 | 4823 ft | 93 kts | 159° |
| 2026-04-28 09:59 | -11.41789 | 34.00316 | 4662 ft | 91 kts | 158° |
| 2026-04-28 10:00 | -11.42365 | 34.00513 | 4462 ft | 80 kts | 157° |
| 2026-04-28 10:00 | -11.42880 | 34.00698 | 4342 ft | 79 kts | 156° |
| 2026-04-28 10:00 | -11.43428 | 34.00882 | 4191 ft | 83 kts | 155° |
| 2026-04-28 10:00 | -11.43943 | 34.01052 | 4120 ft | 69 kts | 159° |
| 2026-04-28 10:01 | -11.44376 | 34.01210 | 4125 ft | 71 kts | 157° |
| 2026-04-28 10:01 | -11.44887 | 34.01380 | 4172 ft | 84 kts | 157° |
| 2026-04-28 10:01 | -11.45434 | 34.01534 | 4401 ft | 83 kts | 163° |
| 2026-04-28 10:01 | -11.45939 | 34.01362 | 4358 ft | 104 kts | 214° |
| 2026-04-28 10:02 | -11.46155 | 34.01685 | 4294 ft | 101 kts | 48° |
| 2026-04-28 10:02 | -11.45481 | 34.01605 | 4207 ft | 104 kts | 332° |
| 2026-04-28 10:02 | -11.44845 | 34.01370 | 4114 ft | 83 kts | 340° |
| 2026-04-28 10:02 | -11.44510 | 34.01253 | 4112 ft | 30 kts | 340° |
| 2026-04-28 10:03 | -11.44428 | 34.01228 | 4112 ft | 4 kts | 161° |
| 2026-04-28 10:03 | -11.44568 | 34.01277 | 4113 ft | 38 kts | 160° |
| 2026-04-28 10:03 | -11.44739 | 34.01339 | 4112 ft | 11 kts | 141° |
| 2026-04-28 10:03 | -11.44809 | 34.01414 | 4116 ft | 13 kts | 161° |
| 2026-04-28 10:04 | -11.44845 | 34.01426 | 4115 ft | 0 kts | 160° |